sensor_id;sensor_type;location;lat;lon;timestamp;P1;durP1;ratioP1;P2;durP2;ratioP2
77738;SDS011;66904;59.926;30.404;2024-03-07T00:00:21;1.73;;;0.80;;
77738;SDS011;66904;59.926;30.404;2024-03-07T00:05:32;1.23;;;0.70;;
77738;SDS011;66904;59.926;30.404;2024-03-07T00:10:42;2.42;;;1.08;;
77738;SDS011;66904;59.926;30.404;2024-03-07T00:15:54;1.02;;;0.55;;
77738;SDS011;66904;59.926;30.404;2024-03-07T00:21:05;2.35;;;0.82;;
77738;SDS011;66904;59.926;30.404;2024-03-07T00:26:16;1.35;;;0.77;;
77738;SDS011;66904;59.926;30.404;2024-03-07T00:31:26;1.33;;;0.73;;
77738;SDS011;66904;59.926;30.404;2024-03-07T00:36:40;2.55;;;1.25;;
77738;SDS011;66904;59.926;30.404;2024-03-07T00:41:51;1.80;;;0.50;;
77738;SDS011;66904;59.926;30.404;2024-03-07T00:47:02;0.90;;;0.50;;
77738;SDS011;66904;59.926;30.404;2024-03-07T00:52:13;0.93;;;0.28;;
77738;SDS011;66904;59.926;30.404;2024-03-07T00:57:25;1.35;;;0.50;;
77738;SDS011;66904;59.926;30.404;2024-03-07T01:02:36;0.90;;;0.50;;
77738;SDS011;66904;59.926;30.404;2024-03-07T01:07:47;0.22;;;0.20;;
77738;SDS011;66904;59.926;30.404;2024-03-07T01:12:57;0.98;;;0.50;;
77738;SDS011;66904;59.926;30.404;2024-03-07T01:18:11;0.65;;;0.30;;
77738;SDS011;66904;59.926;30.404;2024-03-07T01:23:23;0.68;;;0.30;;
77738;SDS011;66904;59.926;30.404;2024-03-07T01:28:33;0.40;;;0.15;;
77738;SDS011;66904;59.926;30.404;2024-03-07T01:33:44;1.27;;;0.38;;
77738;SDS011;66904;59.926;30.404;2024-03-07T01:38:55;0.68;;;0.25;;
77738;SDS011;66904;59.926;30.404;2024-03-07T01:44:05;1.25;;;0.40;;
77738;SDS011;66904;59.926;30.404;2024-03-07T01:49:17;0.32;;;0.15;;
77738;SDS011;66904;59.926;30.404;2024-03-07T01:54:28;1.10;;;0.55;;
77738;SDS011;66904;59.926;30.404;2024-03-07T01:59:39;0.95;;;0.40;;
77738;SDS011;66904;59.926;30.404;2024-03-07T02:04:50;1.50;;;0.50;;
77738;SDS011;66904;59.926;30.404;2024-03-07T02:10:04;0.43;;;0.10;;
77738;SDS011;66904;59.926;30.404;2024-03-07T02:15:15;1.00;;;0.40;;
77738;SDS011;66904;59.926;30.404;2024-03-07T02:20:27;0.63;;;0.38;;
77738;SDS011;66904;59.926;30.404;2024-03-07T02:25:38;1.30;;;0.60;;
77738;SDS011;66904;59.926;30.404;2024-03-07T02:30:49;0.95;;;0.32;;
77738;SDS011;66904;59.926;30.404;2024-03-07T02:35:59;1.45;;;0.50;;
77738;SDS011;66904;59.926;30.404;2024-03-07T02:41:10;0.73;;;0.22;;
77738;SDS011;66904;59.926;30.404;2024-03-07T02:46:21;0.43;;;0.25;;
77738;SDS011;66904;59.926;30.404;2024-03-07T02:51:31;0.43;;;0.20;;
77738;SDS011;66904;59.926;30.404;2024-03-07T02:56:42;1.77;;;0.32;;
77738;SDS011;66904;59.926;30.404;2024-03-07T03:01:53;0.63;;;0.25;;
77738;SDS011;66904;59.926;30.404;2024-03-07T03:07:04;1.35;;;0.40;;
77738;SDS011;66904;59.926;30.404;2024-03-07T03:12:15;0.68;;;0.30;;
77738;SDS011;66904;59.926;30.404;2024-03-07T03:17:26;0.40;;;0.10;;
77738;SDS011;66904;59.926;30.404;2024-03-07T03:22:36;0.90;;;0.35;;
77738;SDS011;66904;59.926;30.404;2024-03-07T03:27:47;0.80;;;0.38;;
77738;SDS011;66904;59.926;30.404;2024-03-07T03:32:59;1.45;;;0.52;;
77738;SDS011;66904;59.926;30.404;2024-03-07T03:38:13;0.95;;;0.40;;
77738;SDS011;66904;59.926;30.404;2024-03-07T03:43:24;1.92;;;0.52;;
77738;SDS011;66904;59.926;30.404;2024-03-07T03:48:35;1.52;;;0.68;;
77738;SDS011;66904;59.926;30.404;2024-03-07T03:53:45;1.33;;;0.70;;
77738;SDS011;66904;59.926;30.404;2024-03-07T03:58:56;2.03;;;0.70;;
77738;SDS011;66904;59.926;30.404;2024-03-07T04:04:07;1.08;;;0.55;;
77738;SDS011;66904;59.926;30.404;2024-03-07T04:09:17;1.83;;;0.90;;
77738;SDS011;66904;59.926;30.404;2024-03-07T04:14:29;1.30;;;0.50;;
77738;SDS011;66904;59.926;30.404;2024-03-07T04:19:43;2.20;;;1.00;;
77738;SDS011;66904;59.926;30.404;2024-03-07T04:24:53;1.67;;;0.75;;
77738;SDS011;66904;59.926;30.404;2024-03-07T04:30:08;1.45;;;0.85;;
77738;SDS011;66904;59.926;30.404;2024-03-07T04:35:22;1.60;;;0.70;;
77738;SDS011;66904;59.926;30.404;2024-03-07T04:40:32;1.05;;;0.52;;
77738;SDS011;66904;59.926;30.404;2024-03-07T04:45:45;1.90;;;0.77;;
77738;SDS011;66904;59.926;30.404;2024-03-07T04:50:55;0.90;;;0.38;;
77738;SDS011;66904;59.926;30.404;2024-03-07T04:56:08;1.27;;;0.60;;
77738;SDS011;66904;59.926;30.404;2024-03-07T05:01:20;2.10;;;0.90;;
77738;SDS011;66904;59.926;30.404;2024-03-07T05:06:31;1.10;;;0.65;;
77738;SDS011;66904;59.926;30.404;2024-03-07T05:11:44;3.30;;;1.02;;
77738;SDS011;66904;59.926;30.404;2024-03-07T05:16:54;1.52;;;0.88;;
77738;SDS011;66904;59.926;30.404;2024-03-07T05:22:19;1.70;;;0.65;;
77738;SDS011;66904;59.926;30.404;2024-03-07T05:27:32;3.67;;;0.98;;
77738;SDS011;66904;59.926;30.404;2024-03-07T05:32:43;2.13;;;1.00;;
77738;SDS011;66904;59.926;30.404;2024-03-07T05:37:54;1.40;;;0.70;;
77738;SDS011;66904;59.926;30.404;2024-03-07T05:43:06;4.43;;;0.98;;
77738;SDS011;66904;59.926;30.404;2024-03-07T05:48:17;1.13;;;0.52;;
77738;SDS011;66904;59.926;30.404;2024-03-07T05:53:28;5.13;;;1.98;;
77738;SDS011;66904;59.926;30.404;2024-03-07T05:58:38;2.00;;;0.65;;
77738;SDS011;66904;59.926;30.404;2024-03-07T06:03:50;1.02;;;0.63;;
77738;SDS011;66904;59.926;30.404;2024-03-07T06:09:02;7.70;;;0.93;;
77738;SDS011;66904;59.926;30.404;2024-03-07T06:14:19;1.60;;;0.65;;
77738;SDS011;66904;59.926;30.404;2024-03-07T06:19:30;1.80;;;0.77;;
77738;SDS011;66904;59.926;30.404;2024-03-07T06:24:41;1.50;;;0.88;;
77738;SDS011;66904;59.926;30.404;2024-03-07T06:29:52;1.73;;;0.75;;
77738;SDS011;66904;59.926;30.404;2024-03-07T06:35:03;2.85;;;1.30;;
77738;SDS011;66904;59.926;30.404;2024-03-07T06:40:15;2.47;;;0.93;;
77738;SDS011;66904;59.926;30.404;2024-03-07T06:45:31;1.25;;;0.70;;
77738;SDS011;66904;59.926;30.404;2024-03-07T06:50:45;2.85;;;0.80;;
77738;SDS011;66904;59.926;30.404;2024-03-07T06:55:56;2.00;;;0.90;;
77738;SDS011;66904;59.926;30.404;2024-03-07T07:01:07;1.20;;;0.45;;
77738;SDS011;66904;59.926;30.404;2024-03-07T07:06:20;2.60;;;1.05;;
77738;SDS011;66904;59.926;30.404;2024-03-07T07:11:31;1.85;;;0.85;;
77738;SDS011;66904;59.926;30.404;2024-03-07T07:16:42;2.17;;;0.90;;
77738;SDS011;66904;59.926;30.404;2024-03-07T07:21:55;4.90;;;1.13;;
77738;SDS011;66904;59.926;30.404;2024-03-07T07:27:06;1.50;;;0.57;;
77738;SDS011;66904;59.926;30.404;2024-03-07T07:32:18;2.33;;;0.73;;
77738;SDS011;66904;59.926;30.404;2024-03-07T07:37:29;1.30;;;0.60;;
77738;SDS011;66904;59.926;30.404;2024-03-07T07:42:40;1.55;;;0.90;;
77738;SDS011;66904;59.926;30.404;2024-03-07T07:47:52;1.25;;;0.68;;
77738;SDS011;66904;59.926;30.404;2024-03-07T07:53:03;1.50;;;0.80;;
77738;SDS011;66904;59.926;30.404;2024-03-07T07:58:19;2.15;;;1.10;;
77738;SDS011;66904;59.926;30.404;2024-03-07T08:03:29;2.42;;;0.80;;
77738;SDS011;66904;59.926;30.404;2024-03-07T08:08:40;1.45;;;0.80;;
77738;SDS011;66904;59.926;30.404;2024-03-07T08:13:51;1.67;;;1.10;;
77738;SDS011;66904;59.926;30.404;2024-03-07T08:19:02;3.63;;;1.40;;
77738;SDS011;66904;59.926;30.404;2024-03-07T08:24:13;2.53;;;1.17;;
77738;SDS011;66904;59.926;30.404;2024-03-07T08:29:24;1.25;;;0.60;;
77738;SDS011;66904;59.926;30.404;2024-03-07T08:34:35;5.45;;;1.35;;
77738;SDS011;66904;59.926;30.404;2024-03-07T08:39:46;2.13;;;1.13;;
77738;SDS011;66904;59.926;30.404;2024-03-07T08:44:56;2.38;;;0.70;;
77738;SDS011;66904;59.926;30.404;2024-03-07T08:50:07;2.15;;;0.98;;
77738;SDS011;66904;59.926;30.404;2024-03-07T08:55:19;7.80;;;1.42;;
77738;SDS011;66904;59.926;30.404;2024-03-07T09:00:31;3.17;;;1.42;;
77738;SDS011;66904;59.926;30.404;2024-03-07T09:05:42;3.33;;;1.50;;
77738;SDS011;66904;59.926;30.404;2024-03-07T09:10:53;6.30;;;1.45;;
77738;SDS011;66904;59.926;30.404;2024-03-07T09:16:07;4.43;;;1.00;;
77738;SDS011;66904;59.926;30.404;2024-03-07T09:21:17;3.20;;;1.48;;
77738;SDS011;66904;59.926;30.404;2024-03-07T09:26:28;2.92;;;1.30;;
77738;SDS011;66904;59.926;30.404;2024-03-07T09:31:39;2.08;;;1.05;;
77738;SDS011;66904;59.926;30.404;2024-03-07T09:36:51;1.92;;;1.00;;
77738;SDS011;66904;59.926;30.404;2024-03-07T09:42:02;2.05;;;1.05;;
77738;SDS011;66904;59.926;30.404;2024-03-07T09:47:13;3.72;;;1.42;;
77738;SDS011;66904;59.926;30.404;2024-03-07T09:52:24;1.27;;;0.60;;
77738;SDS011;66904;59.926;30.404;2024-03-07T09:57:36;2.38;;;0.95;;
77738;SDS011;66904;59.926;30.404;2024-03-07T10:02:58;3.03;;;1.25;;
77738;SDS011;66904;59.926;30.404;2024-03-07T10:08:12;3.15;;;0.98;;
77738;SDS011;66904;59.926;30.404;2024-03-07T10:13:24;1.95;;;1.10;;
77738;SDS011;66904;59.926;30.404;2024-03-07T10:18:42;3.58;;;1.40;;
77738;SDS011;66904;59.926;30.404;2024-03-07T10:24:06;2.60;;;1.30;;
77738;SDS011;66904;59.926;30.404;2024-03-07T10:29:18;1.98;;;1.13;;
77738;SDS011;66904;59.926;30.404;2024-03-07T10:34:33;1.65;;;0.85;;
77738;SDS011;66904;59.926;30.404;2024-03-07T10:39:44;2.45;;;0.85;;
77738;SDS011;66904;59.926;30.404;2024-03-07T10:44:58;2.50;;;1.20;;
77738;SDS011;66904;59.926;30.404;2024-03-07T11:01:13;1.83;;;0.93;;
77738;SDS011;66904;59.926;30.404;2024-03-07T11:06:25;2.05;;;0.88;;
77738;SDS011;66904;59.926;30.404;2024-03-07T11:11:38;2.05;;;0.93;;
77738;SDS011;66904;59.926;30.404;2024-03-07T11:16:54;2.72;;;1.17;;
77738;SDS011;66904;59.926;30.404;2024-03-07T11:22:05;1.77;;;0.90;;
77738;SDS011;66904;59.926;30.404;2024-03-07T11:27:28;2.95;;;0.82;;
77738;SDS011;66904;59.926;30.404;2024-03-07T11:32:39;2.60;;;0.85;;
77738;SDS011;66904;59.926;30.404;2024-03-07T11:37:58;1.90;;;1.10;;
77738;SDS011;66904;59.926;30.404;2024-03-07T11:43:11;8.48;;;1.90;;
77738;SDS011;66904;59.926;30.404;2024-03-07T11:48:23;3.85;;;1.23;;
77738;SDS011;66904;59.926;30.404;2024-03-07T11:53:34;2.88;;;0.95;;
77738;SDS011;66904;59.926;30.404;2024-03-07T11:58:45;2.33;;;0.93;;
77738;SDS011;66904;59.926;30.404;2024-03-07T12:04:02;2.35;;;1.15;;
77738;SDS011;66904;59.926;30.404;2024-03-07T12:09:16;3.55;;;1.30;;
77738;SDS011;66904;59.926;30.404;2024-03-07T12:14:33;2.50;;;1.02;;
77738;SDS011;66904;59.926;30.404;2024-03-07T12:19:45;2.67;;;1.10;;
77738;SDS011;66904;59.926;30.404;2024-03-07T12:25:00;2.95;;;1.00;;
77738;SDS011;66904;59.926;30.404;2024-03-07T12:30:17;1.75;;;0.80;;
77738;SDS011;66904;59.926;30.404;2024-03-07T12:35:30;3.40;;;0.82;;
77738;SDS011;66904;59.926;30.404;2024-03-07T12:40:42;2.30;;;0.82;;
77738;SDS011;66904;59.926;30.404;2024-03-07T12:45:53;2.92;;;0.80;;
77738;SDS011;66904;59.926;30.404;2024-03-07T12:51:05;1.75;;;0.95;;
77738;SDS011;66904;59.926;30.404;2024-03-07T12:56:15;3.42;;;1.27;;
77738;SDS011;66904;59.926;30.404;2024-03-07T13:01:28;2.20;;;1.23;;
77738;SDS011;66904;59.926;30.404;2024-03-07T13:06:38;2.53;;;1.42;;
77738;SDS011;66904;59.926;30.404;2024-03-07T13:11:53;1.52;;;0.93;;
77738;SDS011;66904;59.926;30.404;2024-03-07T13:17:05;5.82;;;1.70;;
77738;SDS011;66904;59.926;30.404;2024-03-07T13:22:18;2.97;;;1.25;;
77738;SDS011;66904;59.926;30.404;2024-03-07T13:27:29;2.05;;;0.80;;
77738;SDS011;66904;59.926;30.404;2024-03-07T13:32:40;2.20;;;0.88;;
77738;SDS011;66904;59.926;30.404;2024-03-07T13:37:51;2.65;;;1.00;;
77738;SDS011;66904;59.926;30.404;2024-03-07T13:43:06;3.10;;;1.27;;
77738;SDS011;66904;59.926;30.404;2024-03-07T13:48:17;3.10;;;1.02;;
77738;SDS011;66904;59.926;30.404;2024-03-07T13:53:29;2.35;;;0.98;;
77738;SDS011;66904;59.926;30.404;2024-03-07T14:32:20;1.42;;;0.70;;
77738;SDS011;66904;59.926;30.404;2024-03-07T14:37:37;2.42;;;1.00;;
77738;SDS011;66904;59.926;30.404;2024-03-07T14:42:55;2.08;;;0.77;;
77738;SDS011;66904;59.926;30.404;2024-03-07T14:48:12;7.30;;;1.02;;
77738;SDS011;66904;59.926;30.404;2024-03-07T14:53:26;1.92;;;0.70;;
77738;SDS011;66904;59.926;30.404;2024-03-07T14:58:37;1.55;;;0.73;;
77738;SDS011;66904;59.926;30.404;2024-03-07T15:03:48;0.98;;;0.45;;
77738;SDS011;66904;59.926;30.404;2024-03-07T15:09:00;2.50;;;0.63;;
77738;SDS011;66904;59.926;30.404;2024-03-07T15:14:11;1.63;;;0.65;;
77738;SDS011;66904;59.926;30.404;2024-03-07T15:19:23;2.65;;;0.68;;
77738;SDS011;66904;59.926;30.404;2024-03-07T15:24:34;1.25;;;0.40;;
77738;SDS011;66904;59.926;30.404;2024-03-07T15:29:46;1.83;;;0.70;;
77738;SDS011;66904;59.926;30.404;2024-03-07T15:34:58;1.70;;;0.63;;
77738;SDS011;66904;59.926;30.404;2024-03-07T15:40:09;1.08;;;0.32;;
77738;SDS011;66904;59.926;30.404;2024-03-07T15:45:23;1.90;;;0.68;;
77738;SDS011;66904;59.926;30.404;2024-03-07T15:50:35;3.22;;;0.88;;
77738;SDS011;66904;59.926;30.404;2024-03-07T15:55:47;1.00;;;0.45;;
77738;SDS011;66904;59.926;30.404;2024-03-07T16:00:58;1.13;;;0.52;;
77738;SDS011;66904;59.926;30.404;2024-03-07T16:06:08;0.82;;;0.35;;
77738;SDS011;66904;59.926;30.404;2024-03-07T16:11:19;3.70;;;0.82;;
77738;SDS011;66904;59.926;30.404;2024-03-07T16:16:38;1.88;;;0.70;;
77738;SDS011;66904;59.926;30.404;2024-03-07T16:21:50;1.83;;;0.65;;
77738;SDS011;66904;59.926;30.404;2024-03-07T16:27:01;1.38;;;0.45;;
77738;SDS011;66904;59.926;30.404;2024-03-07T16:32:12;1.20;;;0.40;;
77738;SDS011;66904;59.926;30.404;2024-03-07T16:37:24;1.75;;;0.47;;
77738;SDS011;66904;59.926;30.404;2024-03-07T16:42:36;0.73;;;0.32;;
77738;SDS011;66904;59.926;30.404;2024-03-07T16:47:51;0.93;;;0.47;;
77738;SDS011;66904;59.926;30.404;2024-03-07T16:53:07;1.38;;;0.65;;
77738;SDS011;66904;59.926;30.404;2024-03-07T16:58:18;2.45;;;0.65;;
77738;SDS011;66904;59.926;30.404;2024-03-07T17:03:28;0.57;;;0.52;;
77738;SDS011;66904;59.926;30.404;2024-03-07T17:08:40;0.57;;;0.20;;
77738;SDS011;66904;59.926;30.404;2024-03-07T17:13:51;0.68;;;0.30;;
77738;SDS011;66904;59.926;30.404;2024-03-07T17:19:01;0.88;;;0.35;;
77738;SDS011;66904;59.926;30.404;2024-03-07T17:24:12;1.33;;;0.52;;
77738;SDS011;66904;59.926;30.404;2024-03-07T17:29:27;1.17;;;0.20;;
77738;SDS011;66904;59.926;30.404;2024-03-07T17:34:38;0.73;;;0.32;;
77738;SDS011;66904;59.926;30.404;2024-03-07T17:39:51;1.00;;;0.30;;
77738;SDS011;66904;59.926;30.404;2024-03-07T17:45:06;2.15;;;0.68;;
77738;SDS011;66904;59.926;30.404;2024-03-07T17:50:21;0.45;;;0.25;;
77738;SDS011;66904;59.926;30.404;2024-03-07T17:55:34;0.95;;;0.50;;
77738;SDS011;66904;59.926;30.404;2024-03-07T18:00:45;0.52;;;0.22;;
77738;SDS011;66904;59.926;30.404;2024-03-07T18:05:56;0.60;;;0.32;;
77738;SDS011;66904;59.926;30.404;2024-03-07T18:11:07;0.80;;;0.38;;
77738;SDS011;66904;59.926;30.404;2024-03-07T18:16:22;1.05;;;0.65;;
77738;SDS011;66904;59.926;30.404;2024-03-07T18:21:33;0.75;;;0.40;;
77738;SDS011;66904;59.926;30.404;2024-03-07T18:26:44;1.48;;;0.68;;
77738;SDS011;66904;59.926;30.404;2024-03-07T18:31:57;1.70;;;0.32;;
77738;SDS011;66904;59.926;30.404;2024-03-07T18:37:09;1.80;;;0.63;;
77738;SDS011;66904;59.926;30.404;2024-03-07T18:42:23;0.75;;;0.38;;
77738;SDS011;66904;59.926;30.404;2024-03-07T18:47:33;1.35;;;0.70;;
77738;SDS011;66904;59.926;30.404;2024-03-07T18:52:49;2.42;;;1.00;;
77738;SDS011;66904;59.926;30.404;2024-03-07T18:58:02;1.25;;;0.47;;
77738;SDS011;66904;59.926;30.404;2024-03-07T19:03:15;2.00;;;0.63;;
77738;SDS011;66904;59.926;30.404;2024-03-07T19:08:25;2.42;;;0.73;;
77738;SDS011;66904;59.926;30.404;2024-03-07T19:13:39;1.13;;;0.38;;
77738;SDS011;66904;59.926;30.404;2024-03-07T19:18:50;0.52;;;0.40;;
77738;SDS011;66904;59.926;30.404;2024-03-07T19:24:01;1.33;;;0.70;;
77738;SDS011;66904;59.926;30.404;2024-03-07T19:29:12;2.28;;;0.68;;
77738;SDS011;66904;59.926;30.404;2024-03-07T19:34:31;1.02;;;0.52;;
77738;SDS011;66904;59.926;30.404;2024-03-07T19:39:42;1.45;;;0.60;;
77738;SDS011;66904;59.926;30.404;2024-03-07T19:44:54;0.68;;;0.40;;
77738;SDS011;66904;59.926;30.404;2024-03-07T19:50:07;2.08;;;0.65;;
77738;SDS011;66904;59.926;30.404;2024-03-07T19:55:21;0.75;;;0.30;;
77738;SDS011;66904;59.926;30.404;2024-03-07T20:00:32;1.90;;;0.77;;
77738;SDS011;66904;59.926;30.404;2024-03-07T20:05:43;1.65;;;0.70;;
77738;SDS011;66904;59.926;30.404;2024-03-07T20:10:54;0.98;;;0.60;;
77738;SDS011;66904;59.926;30.404;2024-03-07T20:16:06;1.48;;;0.70;;
77738;SDS011;66904;59.926;30.404;2024-03-07T20:21:17;1.42;;;0.60;;
77738;SDS011;66904;59.926;30.404;2024-03-07T20:26:28;1.35;;;0.60;;
77738;SDS011;66904;59.926;30.404;2024-03-07T20:31:42;1.17;;;0.43;;
77738;SDS011;66904;59.926;30.404;2024-03-07T20:36:53;0.90;;;0.20;;
77738;SDS011;66904;59.926;30.404;2024-03-07T20:42:04;1.17;;;0.47;;
77738;SDS011;66904;59.926;30.404;2024-03-07T20:47:20;1.75;;;0.70;;
77738;SDS011;66904;59.926;30.404;2024-03-07T20:52:33;1.23;;;0.50;;
77738;SDS011;66904;59.926;30.404;2024-03-07T20:57:47;1.52;;;0.40;;
77738;SDS011;66904;59.926;30.404;2024-03-07T21:03:06;0.98;;;0.40;;
77738;SDS011;66904;59.926;30.404;2024-03-07T21:08:17;2.38;;;0.50;;
77738;SDS011;66904;59.926;30.404;2024-03-07T21:13:28;1.00;;;0.50;;
77738;SDS011;66904;59.926;30.404;2024-03-07T21:18:39;3.55;;;1.05;;
77738;SDS011;66904;59.926;30.404;2024-03-07T21:23:50;3.20;;;0.93;;
77738;SDS011;66904;59.926;30.404;2024-03-07T21:29:01;1.13;;;0.55;;
77738;SDS011;66904;59.926;30.404;2024-03-07T21:34:12;2.10;;;0.60;;
77738;SDS011;66904;59.926;30.404;2024-03-07T21:39:23;1.38;;;0.43;;
77738;SDS011;66904;59.926;30.404;2024-03-07T21:44:34;1.23;;;0.50;;
77738;SDS011;66904;59.926;30.404;2024-03-07T21:49:48;1.10;;;0.40;;
77738;SDS011;66904;59.926;30.404;2024-03-07T21:55:00;1.20;;;0.60;;
77738;SDS011;66904;59.926;30.404;2024-03-07T22:00:14;1.10;;;0.47;;
77738;SDS011;66904;59.926;30.404;2024-03-07T22:05:28;1.75;;;0.68;;
77738;SDS011;66904;59.926;30.404;2024-03-07T22:10:40;0.95;;;0.32;;
77738;SDS011;66904;59.926;30.404;2024-03-07T22:15:50;1.02;;;0.43;;
77738;SDS011;66904;59.926;30.404;2024-03-07T22:21:01;0.88;;;0.40;;
77738;SDS011;66904;59.926;30.404;2024-03-07T22:26:12;0.77;;;0.30;;
77738;SDS011;66904;59.926;30.404;2024-03-07T22:31:23;1.45;;;0.70;;
77738;SDS011;66904;59.926;30.404;2024-03-07T22:36:34;0.30;;;0.20;;
77738;SDS011;66904;59.926;30.404;2024-03-07T22:41:45;0.85;;;0.47;;
77738;SDS011;66904;59.926;30.404;2024-03-07T22:46:56;1.20;;;0.60;;
77738;SDS011;66904;59.926;30.404;2024-03-07T22:52:07;1.25;;;0.40;;
77738;SDS011;66904;59.926;30.404;2024-03-07T22:57:17;1.58;;;0.40;;
77738;SDS011;66904;59.926;30.404;2024-03-07T23:02:28;1.52;;;0.68;;
77738;SDS011;66904;59.926;30.404;2024-03-07T23:07:39;1.55;;;0.60;;
77738;SDS011;66904;59.926;30.404;2024-03-07T23:12:50;1.17;;;0.40;;
77738;SDS011;66904;59.926;30.404;2024-03-07T23:18:02;1.83;;;0.93;;
77738;SDS011;66904;59.926;30.404;2024-03-07T23:23:14;1.73;;;0.80;;
77738;SDS011;66904;59.926;30.404;2024-03-07T23:28:25;1.17;;;0.70;;
77738;SDS011;66904;59.926;30.404;2024-03-07T23:33:36;1.58;;;0.60;;
77738;SDS011;66904;59.926;30.404;2024-03-07T23:38:48;2.30;;;0.50;;
77738;SDS011;66904;59.926;30.404;2024-03-07T23:43:59;1.33;;;0.57;;
77738;SDS011;66904;59.926;30.404;2024-03-07T23:49:10;1.55;;;0.60;;
77738;SDS011;66904;59.926;30.404;2024-03-07T23:54:22;1.60;;;0.75;;
77738;SDS011;66904;59.926;30.404;2024-03-07T23:59:33;1.00;;;0.35;;
